Time;durP1;ratioP1;P1;durP2;ratioP2;P2;SDS_P1;SDS_P2;PMS_P1;PMS_P2;Temp;Humidity;BMP_temperature;BMP_pressure;BME280_temperature;BME280_humidity;BME280_pressure;Samples;Min_cycle;Max_cycle;Signal;HPM_P1;HPM_P2
2023/05/04 00:00:06;;;;;;;7.75;4.25;;;11.30;75.70;;;;;;2092325;28;20112;-72
2023/05/04 00:01:09;;;;;;;8.50;3.85;;;11.30;75.80;;;;;;2094856;28;20028;-72
2023/05/04 00:02:10;;;;;;;7.53;4.57;;;11.30;76.00;;;;;;2092792;28;20020;-72
2023/05/04 00:03:11;;;;;;;8.50;4.25;;;11.30;76.00;;;;;;2092667;28;20552;-72
2023/05/04 00:04:12;;;;;;;9.57;4.55;;;11.30;76.00;;;;;;2094645;28;20013;-72
2023/05/04 00:05:13;;;;;;;5.85;4.00;;;11.30;76.20;;;;;;2094508;28;20021;-72
2023/05/04 00:06:14;;;;;;;5.78;4.10;;;11.30;76.30;;;;;;2093959;28;20021;-73
2023/05/04 00:07:15;;;;;;;7.03;4.32;;;11.30;76.60;;;;;;2092646;28;20098;-73
2023/05/04 00:08:16;;;;;;;8.95;4.03;;;11.20;76.60;;;;;;2091705;28;20406;-73
2023/05/04 00:09:17;;;;;;;7.50;4.53;;;11.20;76.60;;;;;;2091487;28;20056;-73
2023/05/04 00:10:17;;;;;;;7.95;4.65;;;11.20;76.70;;;;;;2093845;28;20037;-73
2023/05/04 00:11:18;;;;;;;5.05;4.22;;;11.20;76.90;;;;;;2091912;28;20060;-72
2023/05/04 00:12:18;;;;;;;5.13;4.10;;;11.20;76.90;;;;;;2093260;28;20025;-72
2023/05/04 00:13:19;;;;;;;6.93;4.82;;;11.20;77.00;;;;;;2093022;28;20020;-72
2023/05/04 00:14:19;;;;;;;7.40;4.75;;;11.10;77.10;;;;;;2094616;28;20037;-73
2023/05/04 00:15:20;;;;;;;12.07;4.43;;;11.10;77.50;;;;;;2092874;28;20605;-73
2023/05/04 00:16:20;;;;;;;7.15;3.97;;;11.10;77.60;;;;;;2092179;28;20035;-73
2023/05/04 00:17:21;;;;;;;5.78;4.10;;;11.10;77.80;;;;;;2091249;28;20036;-73
2023/05/04 00:18:22;;;;;;;7.97;3.70;;;11.10;78.00;;;;;;2092071;28;20029;-73
2023/05/04 00:19:22;;;;;;;7.95;4.72;;;11.10;78.10;;;;;;2091653;28;20685;-73
2023/05/04 00:20:23;;;;;;;11.52;4.82;;;11.10;78.10;;;;;;2091899;28;20613;-72
2023/05/04 00:21:23;;;;;;;9.85;4.43;;;11.10;78.40;;;;;;2092361;28;20025;-72
2023/05/04 00:22:24;;;;;;;8.40;5.22;;;11.10;78.40;;;;;;2092257;28;20391;-72
2023/05/04 00:23:25;;;;;;;6.78;4.70;;;11.00;78.60;;;;;;2093451;28;20024;-72
2023/05/04 00:24:26;;;;;;;6.10;4.30;;;11.00;78.90;;;;;;2091071;28;20020;-72
2023/05/04 00:25:26;;;;;;;8.48;4.55;;;11.00;79.00;;;;;;2091451;28;20020;-73
2023/05/04 00:26:27;;;;;;;8.20;4.63;;;11.00;79.00;;;;;;2094085;28;20033;-73
2023/05/04 00:27:27;;;;;;;10.73;4.30;;;11.00;79.20;;;;;;2093930;28;20129;-72
2023/05/04 00:28:28;;;;;;;6.53;4.32;;;11.00;79.30;;;;;;2095213;28;20033;-72
2023/05/04 00:29:29;;;;;;;6.45;4.57;;;11.00;79.20;;;;;;2093497;28;20043;-72
2023/05/04 00:30:30;;;;;;;5.68;4.07;;;11.00;79.30;;;;;;2093857;28;20123;-72
2023/05/04 00:31:30;;;;;;;6.32;4.10;;;11.00;79.50;;;;;;2096593;28;20024;-72
2023/05/04 00:32:31;;;;;;;9.85;5.32;;;11.00;79.50;;;;;;2094779;28;20024;-72
2023/05/04 00:33:31;;;;;;;12.55;4.53;;;11.00;79.60;;;;;;2095779;28;20024;-72
2023/05/04 00:34:35;;;;;;;9.65;5.05;;;11.00;79.30;;;;;;2095422;28;20120;-72
2023/05/04 00:35:35;;;;;;;5.45;3.80;;;11.00;79.40;;;;;;2093073;28;20028;-72
2023/05/04 00:36:36;;;;;;;5.95;3.83;;;11.00;79.30;;;;;;2096110;28;20024;-72
2023/05/04 00:37:37;;;;;;;6.00;4.15;;;11.00;79.00;;;;;;2090811;28;20021;-72
2023/05/04 00:38:52;;;;;;;9.80;3.90;;;11.00;79.20;;;;;;2094899;28;20033;-72
2023/05/04 00:39:53;;;;;;;6.22;4.22;;;10.90;79.30;;;;;;2094463;28;20024;-72
2023/05/04 00:40:53;;;;;;;6.63;3.97;;;10.90;79.60;;;;;;2093618;28;20032;-72
2023/05/04 00:41:54;;;;;;;10.35;4.78;;;10.90;79.70;;;;;;2093800;28;20029;-72
2023/05/04 00:42:54;;;;;;;8.45;5.07;;;10.80;80.00;;;;;;2094174;28;20031;-72
2023/05/04 00:43:55;;;;;;;8.20;4.97;;;10.80;80.50;;;;;;2092959;28;20112;-72
2023/05/04 00:44:55;;;;;;;5.13;4.00;;;10.80;80.80;;;;;;2094445;28;20029;-72
2023/05/04 00:45:56;;;;;;;7.32;3.97;;;10.80;80.70;;;;;;2094318;28;20040;-72
2023/05/04 00:46:57;;;;;;;7.03;3.72;;;10.80;80.80;;;;;;2097610;28;20025;-72
2023/05/04 00:47:58;;;;;;;5.22;4.30;;;10.80;80.20;;;;;;2093671;28;20028;-72
2023/05/04 00:48:59;;;;;;;7.63;4.55;;;10.80;80.60;;;;;;2091017;28;20031;-72
2023/05/04 00:49:59;;;;;;;7.18;4.57;;;10.70;81.00;;;;;;2091058;28;20032;-72
2023/05/04 00:51:01;;;;;;;9.32;4.88;;;10.70;81.10;;;;;;2094299;28;20028;-72
2023/05/04 00:52:03;;;;;;;6.40;4.00;;;10.70;81.20;;;;;;2093155;28;20072;-72
2023/05/04 00:53:08;;;;;;;9.93;4.07;;;10.70;81.10;;;;;;2094944;28;20406;-72
2023/05/04 00:54:08;;;;;;;6.03;4.45;;;10.70;81.00;;;;;;2094212;28;20127;-72
2023/05/04 00:55:10;;;;;;;6.10;3.72;;;10.70;81.30;;;;;;2096302;28;20031;-72
2023/05/04 00:56:11;;;;;;;4.65;4.05;;;10.60;81.40;;;;;;2093427;28;20028;-72
2023/05/04 00:57:13;;;;;;;7.28;3.92;;;10.60;81.40;;;;;;2094915;28;20107;-72
2023/05/04 00:58:14;;;;;;;6.20;4.55;;;10.60;80.90;;;;;;2091776;28;20607;-72
2023/05/04 00:59:15;;;;;;;6.45;4.45;;;10.60;81.20;;;;;;2095318;28;20032;-72
2023/05/04 01:00:16;;;;;;;7.97;4.70;;;10.60;81.60;;;;;;2092364;28;20055;-72
2023/05/04 01:01:16;;;;;;;5.70;4.30;;;10.60;82.20;;;;;;2093511;28;20116;-72
2023/05/04 01:02:17;;;;;;;6.85;4.07;;;10.50;82.00;;;;;;2094574;28;21133;-72
2023/05/04 01:03:18;;;;;;;6.70;4.82;;;10.50;82.10;;;;;;2095366;28;20029;-72
2023/05/04 01:04:19;;;;;;;7.85;4.28;;;10.50;82.30;;;;;;2093175;28;20044;-72
2023/05/04 01:05:20;;;;;;;7.05;4.10;;;10.50;82.00;;;;;;2094871;28;20482;-72
2023/05/04 01:06:36;;;;;;;7.47;3.30;;;10.50;81.90;;;;;;2095144;28;20025;-72
2023/05/04 01:08:02;;;;;;;7.28;4.55;;;10.50;81.70;;;;;;2092938;28;20155;-73
2023/05/04 01:09:34;;;;;;;10.07;4.57;;;10.50;83.10;;;;;;2094159;28;20025;-72
2023/05/04 01:10:50;;;;;;;10.80;4.85;;;10.40;83.00;;;;;;2089521;28;20035;-72
2023/05/04 01:12:06;;;;;;;5.03;3.95;;;10.40;83.40;;;;;;2089111;28;20024;-72
2023/05/04 01:13:13;;;;;;;9.27;5.15;;;10.40;83.10;;;;;;2092651;28;20059;-72
2023/05/04 01:14:14;;;;;;;5.15;4.43;;;10.30;83.20;;;;;;2093533;28;20078;-72
2023/05/04 01:15:15;;;;;;;5.07;4.45;;;10.30;83.30;;;;;;2093660;28;20037;-72
2023/05/04 01:16:16;;;;;;;4.72;3.33;;;10.30;83.60;;;;;;2092313;28;20033;-72
2023/05/04 01:17:16;;;;;;;5.53;4.50;;;10.30;83.10;;;;;;2092792;28;20024;-72
2023/05/04 01:18:17;;;;;;;6.95;4.10;;;10.30;83.50;;;;;;2094541;28;20024;-72
2023/05/04 01:19:17;;;;;;;5.20;3.72;;;10.20;83.40;;;;;;2095672;28;20032;-72
2023/05/04 01:20:18;;;;;;;6.85;4.10;;;10.20;83.30;;;;;;2093473;28;20047;-72
2023/05/04 01:21:19;;;;;;;10.10;4.72;;;10.20;83.20;;;;;;2093625;28;20501;-72
2023/05/04 01:22:20;;;;;;;7.60;5.05;;;10.20;83.20;;;;;;2093512;28;20021;-72
2023/05/04 01:23:21;;;;;;;7.57;5.00;;;10.20;83.70;;;;;;2093594;28;20149;-72
2023/05/04 01:24:26;;;;;;;8.40;4.88;;;10.20;84.40;;;;;;2093300;28;20020;-72
2023/05/04 01:25:36;;;;;;;8.10;4.53;;;10.20;84.50;;;;;;2093074;28;20111;-72
2023/05/04 01:26:42;;;;;;;6.47;4.15;;;10.10;84.80;;;;;;2093088;28;20025;-72
2023/05/04 01:27:53;;;;;;;7.03;4.50;;;10.10;85.00;;;;;;2092951;28;20128;-72
2023/05/04 01:29:07;;;;;;;7.43;4.82;;;10.10;85.60;;;;;;2092422;28;20021;-72
2023/05/04 01:30:24;;;;;;;9.93;5.22;;;10.00;86.10;;;;;;2093031;28;20098;-72
2023/05/04 01:31:26;;;;;;;5.57;4.90;;;10.00;86.60;;;;;;2092093;28;20592;-72
2023/05/04 01:32:28;;;;;;;7.25;4.20;;;10.00;86.70;;;;;;2092502;28;20033;-72
2023/05/04 01:33:30;;;;;;;7.20;4.82;;;10.00;86.70;;;;;;2093020;28;20060;-72
2023/05/04 01:34:31;;;;;;;4.40;3.80;;;10.00;86.60;;;;;;2093988;28;20029;-72
2023/05/04 01:35:32;;;;;;;6.32;4.82;;;9.90;86.00;;;;;;2094826;28;20059;-72
2023/05/04 01:36:34;;;;;;;5.10;4.50;;;9.90;86.90;;;;;;2093035;28;20083;-72
2023/05/04 01:37:34;;;;;;;5.72;4.53;;;9.90;87.30;;;;;;2092422;28;20376;-72
2023/05/04 01:38:35;;;;;;;9.30;5.07;;;10.00;87.50;;;;;;2093299;28;20016;-72
2023/05/04 01:39:35;;;;;;;6.60;5.10;;;9.90;87.10;;;;;;2092162;28;20025;-72
2023/05/04 01:40:36;;;;;;;5.00;4.50;;;9.90;87.80;;;;;;2092084;28;20024;-72
2023/05/04 01:41:36;;;;;;;9.82;5.18;;;9.90;88.00;;;;;;2093104;28;20096;-73
2023/05/04 01:42:37;;;;;;;6.78;4.97;;;9.90;88.60;;;;;;2092356;28;20079;-72
2023/05/04 01:43:38;;;;;;;5.75;3.83;;;9.90;89.50;;;;;;2091494;28;20104;-72
2023/05/04 01:44:39;;;;;;;4.15;3.75;;;9.90;89.10;;;;;;2094384;28;20063;-72
2023/05/04 01:45:39;;;;;;;8.45;5.43;;;9.80;88.70;;;;;;2095170;28;20117;-72
2023/05/04 01:46:40;;;;;;;5.78;5.00;;;9.80;89.50;;;;;;2093711;28;20020;-72
2023/05/04 01:47:41;;;;;;;5.47;4.20;;;9.80;90.00;;;;;;2094769;28;20024;-72
2023/05/04 01:48:41;;;;;;;8.90;5.25;;;9.80;89.80;;;;;;2092926;28;20078;-72
2023/05/04 01:49:42;;;;;;;5.70;4.55;;;9.70;90.00;;;;;;2091637;28;20492;-72
2023/05/04 01:50:42;;;;;;;4.60;4.20;;;9.70;90.00;;;;;;2096052;28;20032;-72
2023/05/04 01:51:45;;;;;;;6.82;5.15;;;9.70;90.20;;;;;;2092653;28;20041;-72
2023/05/04 01:52:46;;;;;;;7.50;4.97;;;9.70;90.30;;;;;;2094468;28;20024;-73
2023/05/04 01:53:46;;;;;;;6.20;4.35;;;9.70;90.40;;;;;;2091478;28;20044;-73
2023/05/04 01:54:47;;;;;;;6.22;5.18;;;9.60;90.50;;;;;;2091321;28;20075;-72
2023/05/04 01:55:47;;;;;;;6.53;5.10;;;9.60;90.80;;;;;;2092519;28;20195;-72
2023/05/04 01:56:48;;;;;;;6.45;5.70;;;9.60;91.10;;;;;;2092218;28;20120;-72
2023/05/04 01:57:48;;;;;;;5.55;4.68;;;9.60;91.20;;;;;;2092523;28;20036;-72
2023/05/04 01:58:49;;;;;;;7.53;5.25;;;9.60;91.40;;;;;;2091746;28;20036;-72
2023/05/04 01:59:49;;;;;;;6.22;4.43;;;9.60;91.40;;;;;;2092143;28;20398;-72
2023/05/04 02:00:50;;;;;;;4.47;4.00;;;9.50;91.50;;;;;;2090820;28;20029;-72
2023/05/04 02:01:50;;;;;;;11.02;4.75;;;9.50;91.00;;;;;;2092842;28;20021;-72
2023/05/04 02:02:51;;;;;;;6.30;4.68;;;9.50;91.20;;;;;;2092418;28;20495;-72
2023/05/04 02:03:51;;;;;;;6.50;5.22;;;9.50;91.30;;;;;;2092036;28;20091;-72
2023/05/04 02:04:52;;;;;;;6.80;4.20;;;9.50;91.60;;;;;;2092466;28;20024;-72
2023/05/04 02:05:52;;;;;;;6.65;5.13;;;9.50;91.50;;;;;;2092754;28;20028;-72
2023/05/04 02:06:53;;;;;;;7.55;4.95;;;9.50;91.70;;;;;;2093291;28;20108;-72
2023/05/04 02:07:53;;;;;;;7.95;4.53;;;9.50;92.00;;;;;;2092252;28;20484;-72
2023/05/04 02:08:54;;;;;;;8.57;4.60;;;9.50;91.90;;;;;;2092106;28;20127;-72
2023/05/04 02:09:54;;;;;;;9.20;5.57;;;9.40;91.60;;;;;;2091175;28;20374;-72
2023/05/04 02:10:55;;;;;;;6.47;5.10;;;9.40;92.10;;;;;;2092237;28;20100;-72
2023/05/04 02:11:55;;;;;;;7.38;4.40;;;9.40;92.50;;;;;;2091928;28;20016;-72
2023/05/04 02:12:56;;;;;;;6.13;4.47;;;9.40;92.40;;;;;;2091386;28;20038;-72
2023/05/04 02:13:57;;;;;;;7.20;4.47;;;9.40;92.20;;;;;;2093499;28;20066;-72
2023/05/04 02:14:57;;;;;;;5.45;4.05;;;9.30;92.50;;;;;;2091901;28;20111;-72
2023/05/04 02:15:58;;;;;;;7.97;5.50;;;9.30;92.30;;;;;;2092208;28;20044;-72
2023/05/04 02:16:58;;;;;;;7.60;5.85;;;9.30;92.70;;;;;;2092165;28;20464;-72
2023/05/04 02:17:59;;;;;;;6.47;4.32;;;9.30;93.00;;;;;;2094267;28;20497;-72
2023/05/04 02:18:59;;;;;;;9.50;6.10;;;9.30;93.40;;;;;;2094528;28;20028;-72
2023/05/04 02:20:00;;;;;;;9.40;4.70;;;9.30;94.10;;;;;;2092482;28;20025;-72
2023/05/04 02:21:00;;;;;;;6.03;5.15;;;9.30;94.20;;;;;;2092229;28;20107;-72
2023/05/04 02:22:01;;;;;;;5.45;4.32;;;9.20;94.30;;;;;;2092602;28;20020;-72
2023/05/04 02:23:02;;;;;;;5.38;4.40;;;9.20;94.20;;;;;;2091439;28;20913;-72
2023/05/04 02:24:05;;;;;;;8.32;5.30;;;9.20;94.20;;;;;;2094141;28;20048;-72
2023/05/04 02:25:06;;;;;;;7.32;4.40;;;9.20;94.40;;;;;;2092170;28;20025;-72
2023/05/04 02:26:06;;;;;;;6.32;4.53;;;9.20;94.30;;;;;;2093021;28;20079;-72
2023/05/04 02:27:07;;;;;;;8.90;5.65;;;9.20;94.60;;;;;;2091667;28;20028;-73
2023/05/04 02:28:08;;;;;;;10.52;6.00;;;9.20;95.20;;;;;;2093545;28;20021;-72
2023/05/04 02:29:08;;;;;;;10.98;5.03;;;9.20;96.20;;;;;;2092876;28;20412;-72
2023/05/04 02:30:09;;;;;;;7.47;6.10;;;9.20;96.50;;;;;;2091243;28;20542;-72
2023/05/04 02:31:10;;;;;;;8.60;5.72;;;9.20;97.40;;;;;;2090203;28;20472;-72
2023/05/04 02:32:10;;;;;;;7.93;5.45;;;9.10;98.00;;;;;;2090360;28;20569;-72
2023/05/04 02:33:11;;;;;;;5.68;4.53;;;9.10;98.30;;;;;;2091997;28;20431;-72
2023/05/04 02:34:11;;;;;;;6.43;4.88;;;9.10;97.90;;;;;;2092720;28;20133;-72
2023/05/04 02:35:12;;;;;;;10.13;5.22;;;9.10;97.90;;;;;;2093224;28;20047;-72
2023/05/04 02:36:12;;;;;;;7.90;5.18;;;9.10;98.20;;;;;;2093407;28;20023;-72
2023/05/04 02:37:13;;;;;;;6.20;5.03;;;9.10;98.30;;;;;;2093416;28;20040;-72
2023/05/04 02:38:14;;;;;;;5.68;4.68;;;9.10;98.00;;;;;;2091770;28;20019;-72
2023/05/04 02:39:14;;;;;;;7.38;4.60;;;9.10;98.70;;;;;;2090111;28;20021;-72
2023/05/04 02:40:15;;;;;;;7.25;5.30;;;9.10;98.90;;;;;;2094086;28;20036;-72
2023/05/04 02:41:15;;;;;;;6.28;5.68;;;9.10;98.90;;;;;;2093542;28;20116;-72
2023/05/04 02:42:16;;;;;;;8.13;5.50;;;9.10;99.90;;;;;;2092457;28;20437;-72
2023/05/04 02:43:17;;;;;;;10.23;5.63;;;9.10;99.90;;;;;;2092330;28;20017;-72
2023/05/04 02:44:17;;;;;;;7.20;5.70;;;9.10;99.90;;;;;;2092684;28;20569;-72
2023/05/04 02:45:18;;;;;;;9.77;5.60;;;9.10;99.90;;;;;;2092204;28;20029;-73
2023/05/04 02:46:19;;;;;;;6.97;5.45;;;9.10;99.90;;;;;;2092186;28;20465;-72
2023/05/04 02:47:19;;;;;;;6.53;5.72;;;9.10;99.90;;;;;;2091068;28;20379;-72
2023/05/04 02:48:20;;;;;;;8.07;5.47;;;9.10;99.90;;;;;;2091500;28;20064;-72
2023/05/04 02:49:20;;;;;;;11.00;6.13;;;9.10;99.90;;;;;;2092474;28;20020;-72
2023/05/04 02:50:21;;;;;;;7.85;5.85;;;9.10;99.90;;;;;;2091309;28;20052;-72
2023/05/04 02:51:21;;;;;;;8.23;6.05;;;9.00;99.90;;;;;;2100105;28;20028;-72
2023/05/04 02:52:22;;;;;;;6.38;5.65;;;9.00;99.90;;;;;;2099354;28;20032;-72
2023/05/04 02:53:22;;;;;;;8.30;6.38;;;9.00;99.90;;;;;;2090844;28;20064;-72
2023/05/04 02:54:23;;;;;;;8.15;5.97;;;9.00;99.90;;;;;;2092020;28;20032;-72
2023/05/04 02:55:23;;;;;;;9.15;6.15;;;9.00;99.90;;;;;;2092647;28;20144;-72
2023/05/04 02:56:24;;;;;;;10.40;5.82;;;9.00;99.90;;;;;;2091529;28;20061;-72
2023/05/04 02:57:24;;;;;;;8.02;6.03;;;9.00;99.90;;;;;;2096815;28;20065;-72
2023/05/04 02:58:25;;;;;;;7.93;6.20;;;9.00;99.90;;;;;;2096332;28;20512;-72
2023/05/04 02:59:25;;;;;;;7.55;5.63;;;9.00;99.90;;;;;;2097499;28;20544;-72
2023/05/04 03:00:26;;;;;;;8.45;6.20;;;9.00;99.90;;;;;;2091947;28;20739;-72
2023/05/04 03:01:27;;;;;;;12.05;6.47;;;9.00;99.90;;;;;;2094518;28;20020;-72
2023/05/04 03:02:27;;;;;;;11.35;6.55;;;9.00;99.90;;;;;;2093652;28;20028;-72
2023/05/04 03:03:28;;;;;;;9.02;5.90;;;9.00;99.90;;;;;;2092386;28;20901;-72
2023/05/04 03:04:28;;;;;;;7.15;5.47;;;9.00;99.90;;;;;;2094148;28;20025;-72
2023/05/04 03:05:29;;;;;;;6.57;5.70;;;9.00;99.90;;;;;;2090786;28;20016;-72
2023/05/04 03:06:29;;;;;;;7.50;5.65;;;9.00;99.90;;;;;;2090776;28;20028;-72
2023/05/04 03:07:30;;;;;;;9.65;6.20;;;9.00;99.90;;;;;;2088308;28;20032;-72
2023/05/04 03:08:31;;;;;;;10.10;5.78;;;9.00;99.90;;;;;;2090203;28;20032;-72
2023/05/04 03:09:31;;;;;;;8.15;6.40;;;9.00;99.90;;;;;;2093944;28;20067;-72
2023/05/04 03:10:32;;;;;;;10.75;6.38;;;9.00;99.90;;;;;;2094483;28;20032;-72
2023/05/04 03:11:32;;;;;;;7.20;5.40;;;9.00;99.90;;;;;;2095023;28;20024;-72
2023/05/04 03:12:33;;;;;;;9.85;5.95;;;9.00;99.90;;;;;;2092393;28;20032;-72
2023/05/04 03:13:33;;;;;;;8.27;6.00;;;9.00;99.90;;;;;;2092372;28;20021;-72
2023/05/04 03:14:34;;;;;;;8.95;6.28;;;9.00;99.90;;;;;;2092653;28;20055;-72
2023/05/04 03:15:34;;;;;;;9.18;6.57;;;9.00;99.90;;;;;;2092409;28;20029;-74
2023/05/04 03:16:35;;;;;;;7.40;5.93;;;9.00;99.90;;;;;;2099985;28;20048;-72
2023/05/04 03:17:36;;;;;;;8.60;6.22;;;9.00;99.90;;;;;;2099852;28;20048;-72
2023/05/04 03:18:36;;;;;;;6.93;5.90;;;9.00;99.90;;;;;;2094484;28;20495;-72
2023/05/04 03:19:37;;;;;;;9.10;5.90;;;9.00;99.90;;;;;;2084749;28;20026;-72
2023/05/04 03:20:37;;;;;;;9.07;6.50;;;9.00;99.90;;;;;;2093474;28;20044;-72
2023/05/04 03:21:38;;;;;;;7.50;5.38;;;9.00;99.90;;;;;;2093431;28;20488;-72
2023/05/04 03:22:38;;;;;;;7.90;6.10;;;9.00;99.90;;;;;;2092332;28;20028;-72
2023/05/04 03:23:39;;;;;;;11.00;6.05;;;8.90;99.90;;;;;;2094543;28;20415;-72
2023/05/04 03:24:39;;;;;;;7.72;6.47;;;9.00;99.90;;;;;;2093909;28;20024;-72
2023/05/04 03:25:40;;;;;;;7.75;6.50;;;9.00;99.90;;;;;;2091146;28;20032;-72
2023/05/04 03:26:40;;;;;;;8.52;7.18;;;8.90;99.90;;;;;;2093138;28;20037;-72
2023/05/04 03:27:41;;;;;;;8.25;5.90;;;8.90;99.90;;;;;;2093391;28;20523;-72
2023/05/04 03:28:41;;;;;;;7.13;6.38;;;8.90;99.90;;;;;;2092984;28;20453;-72
2023/05/04 03:29:42;;;;;;;8.73;6.32;;;8.90;99.90;;;;;;2090106;28;20041;-72
2023/05/04 03:30:42;;;;;;;10.38;6.32;;;8.90;99.90;;;;;;2094648;28;20027;-72
2023/05/04 03:31:43;;;;;;;9.50;6.70;;;8.90;99.90;;;;;;2094231;28;20071;-72
2023/05/04 03:32:44;;;;;;;9.30;6.22;;;8.90;99.90;;;;;;2092124;28;20078;-72
2023/05/04 03:33:44;;;;;;;6.18;5.47;;;8.90;99.90;;;;;;2095041;28;20146;-72
2023/05/04 03:34:45;;;;;;;9.68;4.90;;;8.90;99.90;;;;;;2094279;28;20479;-72
2023/05/04 03:35:46;;;;;;;6.85;6.15;;;8.90;99.90;;;;;;2091373;28;20082;-72
2023/05/04 03:36:47;;;;;;;9.00;5.88;;;8.90;99.90;;;;;;2092047;28;21459;-72
2023/05/04 03:37:47;;;;;;;7.78;5.93;;;8.90;99.90;;;;;;2092015;28;20441;-72
2023/05/04 03:38:48;;;;;;;9.88;6.03;;;8.90;99.90;;;;;;2093632;28;20060;-72
2023/05/04 03:39:48;;;;;;;7.10;6.40;;;8.90;99.90;;;;;;2091944;28;20067;-72
2023/05/04 03:40:49;;;;;;;9.02;5.65;;;8.90;99.90;;;;;;2092607;28;20021;-72
2023/05/04 03:41:51;;;;;;;11.30;6.97;;;8.90;99.90;;;;;;2093545;28;20462;-72
2023/05/04 03:42:51;;;;;;;9.38;5.72;;;8.90;99.90;;;;;;2092958;28;20511;-72
2023/05/04 03:43:52;;;;;;;9.50;6.13;;;8.90;99.90;;;;;;2092590;28;20118;-72
2023/05/04 03:44:52;;;;;;;11.32;6.63;;;8.90;99.90;;;;;;2095606;28;20040;-72
2023/05/04 03:45:53;;;;;;;9.63;6.50;;;8.90;99.90;;;;;;2094076;28;20036;-72
2023/05/04 03:46:53;;;;;;;7.32;5.88;;;8.90;99.90;;;;;;2093308;28;20025;-72
2023/05/04 03:47:54;;;;;;;7.95;5.50;;;8.90;99.90;;;;;;2093283;28;20040;-72
2023/05/04 03:48:56;;;;;;;10.45;6.82;;;8.90;99.90;;;;;;2092288;28;20028;-72
2023/05/04 03:49:56;;;;;;;11.02;6.82;;;8.90;99.90;;;;;;2090923;28;20037;-72
2023/05/04 03:50:57;;;;;;;9.00;5.82;;;8.80;99.90;;;;;;2092550;28;20131;-72
2023/05/04 03:51:57;;;;;;;6.63;5.38;;;8.80;99.90;;;;;;2090173;28;20032;-72
2023/05/04 03:52:58;;;;;;;8.98;5.28;;;8.80;99.90;;;;;;2095110;28;20036;-72
2023/05/04 03:53:58;;;;;;;7.30;4.95;;;8.80;99.90;;;;;;2093455;28;20033;-72
2023/05/04 03:54:59;;;;;;;10.43;6.20;;;8.80;99.90;;;;;;2090773;28;20631;-72
2023/05/04 03:56:01;;;;;;;8.07;7.22;;;8.80;99.90;;;;;;2095798;28;20024;-72
2023/05/04 03:57:03;;;;;;;9.02;6.18;;;8.80;99.90;;;;;;2094009;28;20020;-72
2023/05/04 03:58:03;;;;;;;7.47;6.03;;;8.80;99.90;;;;;;2092403;28;20116;-72
2023/05/04 03:59:04;;;;;;;8.15;5.13;;;8.80;99.90;;;;;;2091531;28;20032;-72
2023/05/04 04:00:05;;;;;;;8.23;5.97;;;8.80;99.90;;;;;;2089439;28;20481;-72
2023/05/04 04:01:06;;;;;;;8.10;6.13;;;8.80;99.90;;;;;;2090519;28;20055;-73
2023/05/04 04:02:06;;;;;;;7.43;6.13;;;8.80;99.90;;;;;;2090900;28;20021;-72
2023/05/04 04:03:07;;;;;;;7.95;5.57;;;8.80;99.90;;;;;;2092670;28;20341;-72
2023/05/04 04:04:07;;;;;;;6.60;5.70;;;8.80;99.90;;;;;;2091946;28;20057;-72
2023/05/04 04:05:08;;;;;;;7.18;5.85;;;8.80;99.90;;;;;;2091989;28;20032;-72
2023/05/04 04:06:09;;;;;;;6.72;6.00;;;8.80;99.90;;;;;;2091849;28;20036;-72
2023/05/04 04:07:10;;;;;;;12.23;7.13;;;8.80;99.90;;;;;;2093169;28;20020;-72
2023/05/04 04:08:10;;;;;;;8.40;5.30;;;8.80;99.90;;;;;;2093621;28;20082;-72
2023/05/04 04:09:11;;;;;;;5.80;4.88;;;8.70;99.90;;;;;;2094283;28;20361;-72
2023/05/04 04:10:11;;;;;;;11.70;6.32;;;8.80;99.90;;;;;;2092009;28;20025;-72
2023/05/04 04:11:12;;;;;;;6.20;5.20;;;8.80;99.90;;;;;;2087240;28;20056;-72
2023/05/04 04:12:14;;;;;;;6.47;4.97;;;8.80;99.90;;;;;;2095223;28;20013;-72
2023/05/04 04:13:15;;;;;;;9.40;5.90;;;8.70;99.90;;;;;;2093550;28;20031;-72
2023/05/04 04:14:15;;;;;;;7.07;6.03;;;8.80;99.90;;;;;;2094902;28;20028;-72
2023/05/04 04:15:16;;;;;;;9.10;6.13;;;8.70;99.90;;;;;;2092977;28;20036;-72
2023/05/04 04:16:18;;;;;;;8.52;6.32;;;8.70;99.90;;;;;;2093947;28;20027;-72
2023/05/04 04:17:19;;;;;;;9.50;5.07;;;8.70;99.90;;;;;;2090715;28;20029;-72
2023/05/04 04:18:22;;;;;;;7.43;5.65;;;8.70;99.90;;;;;;2094603;28;20021;-72
2023/05/04 04:19:22;;;;;;;6.35;4.70;;;8.70;99.90;;;;;;2094683;28;20037;-72
2023/05/04 04:20:23;;;;;;;9.15;6.57;;;8.70;99.90;;;;;;2094091;28;20064;-72
2023/05/04 04:21:24;;;;;;;6.65;5.90;;;8.70;99.90;;;;;;2093829;28;20078;-72
2023/05/04 04:22:25;;;;;;;12.15;5.57;;;8.70;99.90;;;;;;2093081;28;20027;-72
2023/05/04 04:23:26;;;;;;;11.50;6.00;;;8.70;99.90;;;;;;2092430;28;20044;-72
2023/05/04 04:24:27;;;;;;;6.13;4.78;;;8.70;99.90;;;;;;2094339;28;20024;-72
2023/05/04 04:25:27;;;;;;;7.47;6.43;;;8.70;99.90;;;;;;2094384;28;20523;-72
2023/05/04 04:26:28;;;;;;;8.55;6.32;;;8.70;99.90;;;;;;2096326;28;20021;-72
2023/05/04 04:27:28;;;;;;;8.65;6.30;;;8.70;99.90;;;;;;2092652;28;20029;-72
2023/05/04 04:28:29;;;;;;;9.57;6.85;;;8.70;99.90;;;;;;2093711;28;20021;-72
2023/05/04 04:29:30;;;;;;;8.05;5.95;;;8.70;99.90;;;;;;2093416;28;20051;-72
2023/05/04 04:30:30;;;;;;;7.15;5.57;;;8.60;99.90;;;;;;2094120;28;20032;-72
2023/05/04 04:31:32;;;;;;;8.48;6.53;;;8.70;99.90;;;;;;2094713;28;20050;-72
2023/05/04 04:32:32;;;;;;;9.73;6.13;;;8.70;99.90;;;;;;2093105;28;20117;-72
2023/05/04 04:33:33;;;;;;;8.98;5.57;;;8.70;99.90;;;;;;2097601;28;20078;-72
2023/05/04 04:34:34;;;;;;;10.57;5.68;;;8.60;99.90;;;;;;2094648;28;20029;-72
2023/05/04 04:35:35;;;;;;;8.85;6.45;;;8.70;99.90;;;;;;2088717;28;20025;-72
2023/05/04 04:36:36;;;;;;;6.38;5.47;;;8.60;99.90;;;;;;2092406;28;20047;-72
2023/05/04 04:37:37;;;;;;;8.00;5.80;;;8.70;99.90;;;;;;2094558;28;20114;-72
2023/05/04 04:38:38;;;;;;;7.43;5.22;;;8.70;99.90;;;;;;2095977;28;20107;-72
2023/05/04 04:39:39;;;;;;;6.85;5.80;;;8.70;99.90;;;;;;2094917;28;20020;-72
2023/05/04 04:40:39;;;;;;;7.78;6.20;;;8.70;99.90;;;;;;2092411;28;20032;-72
2023/05/04 04:41:40;;;;;;;7.30;6.00;;;8.70;99.90;;;;;;2095305;28;20503;-72
2023/05/04 04:42:40;;;;;;;10.30;6.43;;;8.70;99.90;;;;;;2094106;28;20036;-72
2023/05/04 04:43:41;;;;;;;10.07;5.97;;;8.70;99.90;;;;;;2094499;28;20396;-72
2023/05/04 04:44:42;;;;;;;8.80;6.10;;;8.70;99.90;;;;;;2086709;28;20456;-72
2023/05/04 04:45:44;;;;;;;7.30;6.10;;;8.70;99.90;;;;;;2087666;28;20024;-72
2023/05/04 04:46:45;;;;;;;9.20;6.03;;;8.70;99.90;;;;;;2094263;28;20052;-72
2023/05/04 04:47:46;;;;;;;9.38;6.47;;;8.70;99.90;;;;;;2095040;28;20056;-72
2023/05/04 04:48:46;;;;;;;9.93;5.32;;;8.60;99.90;;;;;;2093692;28;20555;-72
2023/05/04 04:49:47;;;;;;;6.10;5.43;;;8.70;99.90;;;;;;2092748;28;20082;-72
2023/05/04 04:50:48;;;;;;;9.73;7.13;;;8.70;99.90;;;;;;2092352;28;20024;-72
2023/05/04 04:51:49;;;;;;;8.55;5.65;;;8.70;99.90;;;;;;2093366;28;20515;-72
2023/05/04 04:52:49;;;;;;;8.32;5.90;;;8.70;99.90;;;;;;2093204;28;20028;-72
2023/05/04 04:53:50;;;;;;;6.38;5.78;;;8.70;99.90;;;;;;2093697;28;20059;-72
2023/05/04 04:54:51;;;;;;;7.63;6.80;;;8.70;99.90;;;;;;2093997;28;20027;-72
2023/05/04 04:55:52;;;;;;;8.32;6.70;;;8.70;99.90;;;;;;2097444;28;20031;-72
2023/05/04 04:56:53;;;;;;;8.02;6.68;;;8.70;99.90;;;;;;2095623;28;20028;-72
2023/05/04 04:57:54;;;;;;;7.95;6.57;;;8.70;99.90;;;;;;2096028;28;20032;-72
2023/05/04 04:58:55;;;;;;;8.70;6.80;;;8.70;99.90;;;;;;2090956;28;20094;-72
2023/05/04 04:59:56;;;;;;;9.13;6.57;;;8.70;99.90;;;;;;2090857;28;20158;-72
2023/05/04 05:00:57;;;;;;;6.90;6.13;;;8.70;99.90;;;;;;2092782;28;20025;-72
2023/05/04 05:01:58;;;;;;;7.97;6.95;;;8.70;99.90;;;;;;2092287;28;20163;-72
2023/05/04 05:02:58;;;;;;;10.77;6.13;;;8.70;99.90;;;;;;2092113;28;20764;-72
2023/05/04 05:03:59;;;;;;;8.40;5.78;;;8.70;99.90;;;;;;2093850;28;20031;-72
2023/05/04 05:04:59;;;;;;;6.78;5.70;;;8.70;99.90;;;;;;2092634;28;20621;-72
2023/05/04 05:06:01;;;;;;;6.85;5.68;;;8.70;99.90;;;;;;2093294;28;20028;-72
2023/05/04 05:07:01;;;;;;;7.45;6.75;;;8.80;99.90;;;;;;2094122;28;20025;-72
2023/05/04 05:08:02;;;;;;;13.10;7.25;;;8.70;99.90;;;;;;2093706;28;20033;-72
2023/05/04 05:09:03;;;;;;;9.65;6.90;;;8.80;99.90;;;;;;2092546;28;20373;-72
2023/05/04 05:10:04;;;;;;;8.25;5.65;;;8.80;99.90;;;;;;2091167;28;20031;-72
2023/05/04 05:11:05;;;;;;;9.27;6.20;;;8.80;99.90;;;;;;2094063;28;20118;-72
2023/05/04 05:12:05;;;;;;;10.88;6.72;;;8.80;99.90;;;;;;2089971;28;20116;-72
2023/05/04 05:13:06;;;;;;;8.63;6.18;;;8.80;99.90;;;;;;2096721;28;20020;-73
2023/05/04 05:14:07;;;;;;;9.00;6.28;;;8.80;99.90;;;;;;2095569;28;20119;-72
2023/05/04 05:15:08;;;;;;;8.73;6.88;;;8.80;99.90;;;;;;2092467;28;20110;-72
2023/05/04 05:16:08;;;;;;;8.90;7.10;;;8.80;99.90;;;;;;2094399;28;20080;-72
2023/05/04 05:17:09;;;;;;;8.52;7.30;;;8.90;99.90;;;;;;2093946;28;20127;-72
2023/05/04 05:18:10;;;;;;;11.30;7.20;;;8.90;99.90;;;;;;2092295;28;20025;-73
2023/05/04 05:19:10;;;;;;;10.55;7.50;;;8.90;99.90;;;;;;2094013;28;20055;-72
2023/05/04 05:20:12;;;;;;;8.15;7.10;;;8.90;99.90;;;;;;2093622;28;20068;-72
2023/05/04 05:21:13;;;;;;;10.73;7.28;;;9.00;99.90;;;;;;2096271;28;20044;-72